Time;durP1;ratioP1;P1;durP2;ratioP2;P2;SDS_P1;SDS_P2;PMS_P1;PMS_P2;Temp;Humidity;BMP_temperature;BMP_pressure;BME280_temperature;BME280_humidity;BME280_pressure;Samples;Min_cycle;Max_cycle;Signal;HPM_P1;HPM_P2
2022/07/02 00:02:20;;;;;;;;;;;;;;;23.55;70.10;100806.03;7406768;19;1415;-57
2022/07/02 00:04:50;;;;;;;;;;;;;;;23.57;68.91;100806.72;7409364;19;1567;-61
2022/07/02 00:07:21;;;;;;;;;;;;;;;23.57;68.80;100796.75;7408166;19;1606;-62
2022/07/02 00:09:49;;;;;;;;;;;;;;;23.57;69.57;100810.25;7408417;19;1473;-62
2022/07/02 00:12:17;;;;;;;;;;;;;;;23.53;69.60;100808.06;7408133;19;1618;-57
2022/07/02 00:14:46;;;;;;;;;;;;;;;23.52;69.64;100799.13;7408160;19;1852;-57
2022/07/02 00:17:15;;;;;;;;;;;;;;;23.55;69.38;100803.34;7408129;19;1602;-57
2022/07/02 00:19:43;;;;;;;;;;;;;;;23.43;69.76;100805.47;7408253;19;1599;-61
2022/07/02 00:22:12;;;;;;;;;;;;;;;23.45;69.80;100798.06;7408591;19;1748;-56
2022/07/02 00:24:43;;;;;;;;;;;;;;;23.48;69.58;100803.16;7407562;19;1531;-62
2022/07/02 00:27:12;;;;;;;;;;;;;;;23.48;68.92;100805.00;7408585;19;1542;-62
2022/07/02 00:29:44;;;;;;;;;;;;;;;23.51;68.53;100820.88;7408477;19;1544;-57
2022/07/02 00:32:13;;;;;;;;;;;;;;;23.53;68.09;100811.59;7407960;19;1504;-57
2022/07/02 00:34:42;;;;;;;;;;;;;;;23.49;67.92;100798.59;7408371;19;1842;-57
2022/07/02 00:37:10;;;;;;;;;;;;;;;23.54;68.00;100807.06;7404744;19;1756;-62
2022/07/02 00:39:39;;;;;;;;;;;;;;;23.56;67.86;100799.63;7407275;19;1630;-62
2022/07/02 00:42:11;;;;;;;;;;;;;;;23.51;68.41;100792.00;7408045;19;1542;-62
2022/07/02 00:44:39;;;;;;;;;;;;;;;23.48;69.34;100800.44;7408765;19;1529;-62
2022/07/02 00:47:09;;;;;;;;;;;;;;;23.40;69.40;100803.97;7407607;19;1833;-62
2022/07/02 00:49:38;;;;;;;;;;;;;;;23.41;69.16;100807.50;7407046;19;1726;-57
2022/07/02 00:52:07;;;;;;;;;;;;;;;23.38;69.24;100813.25;7407393;19;1625;-61
2022/07/02 00:54:35;;;;;;;;;;;;;;;23.34;69.11;100799.22;7407672;19;1598;-56
2022/07/02 00:57:04;;;;;;;;;;;;;;;23.35;69.25;100809.00;7406598;19;1851;-61
2022/07/02 00:59:35;;;;;;;;;;;;;;;23.37;68.76;100806.97;7407537;19;1783;-61
2022/07/02 01:02:04;;;;;;;;;;;;;;;23.32;68.94;100809.34;7405863;19;1681;-62
2022/07/02 01:04:35;;;;;;;;;;;;;;;23.38;68.85;100805.16;7406711;19;1509;-61
2022/07/02 01:07:04;;;;;;;;;;;;;;;23.37;68.41;100817.78;7406927;19;1771;-56
2022/07/02 01:12:17;;;;;;;;;;;;;;;23.43;68.73;100806.31;7408060;19;1547;-61
2022/07/02 01:14:48;;;;;;;;;;;;;;;23.41;68.43;100810.19;7407316;19;1747;-57
2022/07/02 01:17:16;;;;;;;;;;;;;;;23.41;67.95;100815.59;7401629;19;1845;-56
2022/07/02 01:19:44;;;;;;;;;;;;;;;23.41;68.02;100813.75;7407810;19;1054;-62
2022/07/02 01:22:16;;;;;;;;;;;;;;;23.40;68.05;100822.84;7406007;19;1874;-61
2022/07/02 01:24:46;;;;;;;;;;;;;;;23.39;67.54;100793.34;7404813;19;1697;-56
2022/07/02 01:27:14;;;;;;;;;;;;;;;23.39;67.80;100799.56;7406520;19;1528;-61
2022/07/02 01:29:42;;;;;;;;;;;;;;;23.35;68.59;100800.91;7407116;19;1410;-62
2022/07/02 01:32:11;;;;;;;;;;;;;;;23.36;68.73;100807.16;7406669;19;1402;-62
2022/07/02 01:34:40;;;;;;;;;;;;;;;23.35;68.37;100808.16;7405601;19;1772;-62
2022/07/02 01:37:12;;;;;;;;;;;;;;;23.29;68.44;100806.97;7403294;19;1839;-57
2022/07/02 01:39:43;;;;;;;;;;;;;;;23.32;68.25;100809.34;7406088;19;1544;-61
2022/07/02 01:42:12;;;;;;;;;;;;;;;23.27;68.47;100810.84;7405823;19;1567;-62
2022/07/02 01:44:41;;;;;;;;;;;;;;;23.22;68.42;100808.63;7406064;19;1641;-61
2022/07/02 01:47:10;;;;;;;;;;;;;;;23.21;68.23;100810.47;7405885;19;1780;-57
2022/07/02 01:49:39;;;;;;;;;;;;;;;23.22;68.06;100808.63;7405089;19;1752;-61
2022/07/02 01:52:08;;;;;;;;;;;;;;;23.25;68.11;100819.09;7404094;19;1681;-62
2022/07/02 01:54:36;;;;;;;;;;;;;;;23.26;68.13;100825.31;7406615;19;1457;-57
2022/07/02 01:57:07;;;;;;;;;;;;;;;23.29;68.17;100820.44;7404392;19;1857;-57
2022/07/02 01:59:36;;;;;;;;;;;;;;;23.30;67.98;100826.69;7404402;19;1455;-56
2022/07/02 02:02:05;;;;;;;;;;;;;;;23.24;68.18;100820.09;7395329;19;1690;-62
2022/07/02 02:04:34;;;;;;;;;;;;;;;23.24;67.83;100814.72;7403712;19;1661;-62
2022/07/02 02:07:02;;;;;;;;;;;;;;;23.26;67.75;100826.19;7403845;19;1606;-62
2022/07/02 02:09:31;;;;;;;;;;;;;;;23.26;67.97;100826.19;7404449;19;1609;-62
2022/07/02 02:11:59;;;;;;;;;;;;;;;23.27;68.04;100835.97;7404266;19;1531;-62
2022/07/02 02:14:30;;;;;;;;;;;;;;;23.25;67.55;100835.28;7405623;19;1539;-62
2022/07/02 02:16:59;;;;;;;;;;;;;;;23.28;67.56;100834.97;7403332;19;1899;-62
2022/07/02 02:19:27;;;;;;;;;;;;;;;23.29;67.72;100841.19;7404275;19;1677;-62
2022/07/02 02:21:56;;;;;;;;;;;;;;;23.36;67.26;100840.38;7404239;19;1411;-62
2022/07/02 02:24:24;;;;;;;;;;;;;;;23.29;67.10;100836.63;7403590;19;1609;-62
2022/07/02 02:26:53;;;;;;;;;;;;;;;23.30;66.98;100840.16;7405364;19;1549;-56
2022/07/02 02:29:21;;;;;;;;;;;;;;;23.32;66.97;100835.50;7405309;19;1783;-56
2022/07/02 02:31:52;;;;;;;;;;;;;;;23.32;67.02;100844.41;7411612;19;1614;-56
2022/07/02 02:34:21;;;;;;;;;;;;;;;23.30;67.10;100837.47;7411095;19;1603;-56
2022/07/02 02:36:49;;;;;;;;;;;;;;;23.23;67.72;100839.97;7409908;19;1842;-56
2022/07/02 02:39:17;;;;;;;;;;;;;;;23.30;67.40;100849.13;7412705;19;1520;-56
2022/07/02 02:41:46;;;;;;;;;;;;;;;23.24;67.69;100844.38;7412297;19;1535;-56
2022/07/02 02:44:14;;;;;;;;;;;;;;;23.18;67.78;100851.28;7408672;19;1611;-56
2022/07/02 02:46:42;;;;;;;;;;;;;;;23.17;68.00;100854.97;7411156;19;1237;-57
2022/07/02 02:49:14;;;;;;;;;;;;;;;23.17;68.01;100857.66;7411770;19;1125;-56
2022/07/02 02:51:42;;;;;;;;;;;;;;;23.22;67.80;100862.59;7409182;19;1678;-56
2022/07/02 02:54:10;;;;;;;;;;;;;;;23.17;67.57;100862.22;7409441;19;1643;-56
2022/07/02 02:56:39;;;;;;;;;;;;;;;23.20;66.81;100861.91;7407340;19;1855;-56
2022/07/02 02:59:07;;;;;;;;;;;;;;;23.22;66.68;100878.78;7410135;19;1325;-56
2022/07/02 03:01:36;;;;;;;;;;;;;;;23.28;66.58;100880.84;7408598;19;1470;-56
2022/07/02 03:04:04;;;;;;;;;;;;;;;23.15;67.53;100867.75;7409742;19;1337;-56
2022/07/02 03:06:35;;;;;;;;;;;;;;;23.20;67.21;100878.09;7410104;19;1520;-57
2022/07/02 03:09:03;;;;;;;;;;;;;;;23.15;67.44;100859.66;7409693;19;1623;-56
2022/07/02 03:11:32;;;;;;;;;;;;;;;23.17;67.34;100871.16;7409980;19;1743;-57
2022/07/02 03:14:00;;;;;;;;;;;;;;;23.20;66.83;100867.31;7409805;19;1758;-56
2022/07/02 03:16:29;;;;;;;;;;;;;;;23.17;67.71;100886.50;7409051;19;1856;-57
2022/07/02 03:18:57;;;;;;;;;;;;;;;23.18;67.77;100880.94;7410236;19;1521;-56
2022/07/02 03:21:25;;;;;;;;;;;;;;;23.14;67.78;100876.88;7409467;19;1458;-56
2022/07/02 03:23:56;;;;;;;;;;;;;;;23.12;68.21;100869.94;7410149;19;1451;-57
2022/07/02 03:26:24;;;;;;;;;;;;;;;23.15;67.98;100873.16;7408832;19;1584;-56
2022/07/02 03:28:53;;;;;;;;;;;;;;;23.19;67.89;100877.22;7409593;19;1694;-56
2022/07/02 03:31:21;;;;;;;;;;;;;;;23.20;67.90;100876.22;7410099;19;1656;-56
2022/07/02 03:33:49;;;;;;;;;;;;;;;23.21;68.95;100887.88;7410056;19;1527;-56
2022/07/02 03:36:18;;;;;;;;;;;;;;;23.21;69.11;100893.25;7408639;19;1860;-56
2022/07/02 03:38:46;;;;;;;;;;;;;;;23.27;68.83;100884.53;7409297;19;1300;-56
2022/07/02 03:41:17;;;;;;;;;;;;;;;23.20;68.87;100894.28;7407352;19;1596;-56
2022/07/02 03:43:46;;;;;;;;;;;;;;;23.25;68.48;100883.00;7407715;19;1540;-57
2022/07/02 03:46:16;;;;;;;;;;;;;;;23.27;68.84;100884.53;7408299;19;1250;-57
2022/07/02 03:48:44;;;;;;;;;;;;;;;23.31;68.47;100885.88;7408532;19;1353;-57
2022/07/02 03:51:13;;;;;;;;;;;;;;;23.28;68.96;100888.94;7409018;19;1289;-62
2022/07/02 03:53:41;;;;;;;;;;;;;;;23.29;68.69;100878.97;7409144;19;1662;-62
2022/07/02 03:56:09;;;;;;;;;;;;;;;23.35;69.25;100905.31;7407983;19;1850;-62
2022/07/02 03:58:40;;;;;;;;;;;;;;;23.35;69.11;100894.50;7408413;19;1455;-63
2022/07/02 04:01:09;;;;;;;;;;;;;;;23.37;68.65;100887.94;7405991;19;1497;-62
2022/07/02 04:03:37;;;;;;;;;;;;;;;23.41;68.63;100894.69;7406193;19;1420;-62
2022/07/02 04:06:06;;;;;;;;;;;;;;;23.41;68.16;100889.31;7405040;19;1332;-62
2022/07/02 04:08:35;;;;;;;;;;;;;;;23.44;68.28;100888.16;7407272;19;1259;-63
2022/07/02 04:11:03;;;;;;;;;;;;;;;23.48;68.12;100894.09;7408363;19;1221;-62
2022/07/02 04:13:32;;;;;;;;;;;;;;;23.49;68.43;100902.00;7406305;19;1387;-62
2022/07/02 04:16:03;;;;;;;;;;;;;;;23.50;68.18;100903.69;7408001;19;1861;-62
2022/07/02 04:18:31;;;;;;;;;;;;;;;23.53;68.27;100908.75;7405225;19;1902;-56
2022/07/02 04:20:59;;;;;;;;;;;;;;;23.52;68.07;100911.66;7407165;19;1287;-56
2022/07/02 04:23:28;;;;;;;;;;;;;;;23.58;68.01;100924.50;7407754;19;1295;-56
2022/07/02 04:25:56;;;;;;;;;;;;;;;23.53;67.50;100911.47;7406046;19;1475;-57
2022/07/02 04:28:25;;;;;;;;;;;;;;;23.58;67.64;100911.84;7406779;19;1373;-62
2022/07/02 04:30:54;;;;;;;;;;;;;;;23.60;67.45;100907.13;7407428;19;1713;-62
2022/07/02 04:33:25;;;;;;;;;;;;;;;23.64;67.29;100913.03;7407364;19;1376;-62
2022/07/02 04:35:53;;;;;;;;;;;;;;;23.68;67.19;100913.56;7406610;19;1560;-56
2022/07/02 04:38:22;;;;;;;;;;;;;;;23.69;67.20;100918.78;7406404;19;1853;-57
2022/07/02 04:40:50;;;;;;;;;;;;;;;23.73;67.24;100911.19;7404383;19;1737;-56
2022/07/02 04:43:19;;;;;;;;;;;;;;;23.84;67.13;100910.09;7406795;19;1446;-56
2022/07/02 04:45:47;;;;;;;;;;;;;;;23.89;66.94;100907.75;7407574;19;1334;-56
2022/07/02 04:48:15;;;;;;;;;;;;;;;23.96;67.64;100922.28;7403986;19;1529;-66
2022/07/02 04:50:46;;;;;;;;;;;;;;;24.01;67.66;100933.44;7407209;19;1467;-61
2022/07/02 04:53:15;;;;;;;;;;;;;;;23.94;67.74;100927.00;7405827;19;1665;-61
2022/07/02 04:55:43;;;;;;;;;;;;;;;23.93;67.88;100930.72;7406589;19;1225;-61
2022/07/02 04:58:11;;;;;;;;;;;;;;;23.97;67.93;100927.53;7405240;19;1849;-61
2022/07/02 05:00:39;;;;;;;;;;;;;;;23.96;67.78;100925.00;7405519;19;1430;-61
2022/07/02 05:03:08;;;;;;;;;;;;;;;23.96;67.65;100931.25;7407512;19;1785;-61
2022/07/02 05:05:36;;;;;;;;;;;;;;;23.98;68.40;100931.06;7406757;19;1694;-61
2022/07/02 05:08:07;;;;;;;;;;;;;;;24.08;68.18;100936.34;7407104;19;1521;-62
2022/07/02 05:10:36;;;;;;;;;;;;;;;24.13;67.93;100933.97;7404369;19;1847;-62
2022/07/02 05:13:04;;;;;;;;;;;;;;;24.12;67.86;100935.00;7405980;19;1313;-62
2022/07/02 05:15:33;;;;;;;;;;;;;;;24.11;67.75;100939.53;7405825;19;1670;-62
2022/07/02 05:18:01;;;;;;;;;;;;;;;24.09;67.86;100925.34;7401279;19;1855;-62
2022/07/02 05:20:30;;;;;;;;;;;;;;;24.13;67.64;100926.72;7404808;19;1674;-62
2022/07/02 05:22:59;;;;;;;;;;;;;;;24.14;67.60;100930.28;7406370;19;1618;-62
2022/07/02 05:25:30;;;;;;;;;;;;;;;24.18;67.39;100940.56;7405254;19;1570;-61
2022/07/02 05:27:58;;;;;;;;;;;;;;;24.23;67.34;100934.66;7405872;19;1591;-62
2022/07/02 05:30:26;;;;;;;;;;;;;;;24.22;67.49;100951.91;7405498;19;1536;-62
2022/07/02 05:32:55;;;;;;;;;;;;;;;24.26;67.38;100944.31;7405431;19;1725;-62
2022/07/02 05:35:23;;;;;;;;;;;;;;;24.24;67.43;100943.63;7404644;19;1572;-62
2022/07/02 05:37:52;;;;;;;;;;;;;;;24.25;67.36;100940.75;7399972;19;1855;-62
2022/07/02 05:40:20;;;;;;;;;;;;;;;24.29;67.32;100952.06;7396760;19;1629;-62
2022/07/02 05:42:51;;;;;;;;;;;;;;;24.31;67.46;100937.41;7403085;19;1562;-62
2022/07/02 05:45:19;;;;;;;;;;;;;;;24.30;67.47;100942.97;7402316;19;1604;-62
2022/07/02 05:47:48;;;;;;;;;;;;;;;24.38;67.35;100956.50;7403314;19;1764;-63
2022/07/02 05:50:16;;;;;;;;;;;;;;;24.35;67.65;100951.41;7403604;19;1453;-63
2022/07/02 05:52:45;;;;;;;;;;;;;;;24.34;67.57;100947.03;7402482;19;1751;-62
2022/07/02 05:55:14;;;;;;;;;;;;;;;24.34;67.44;100934.34;7404045;19;1270;-63
2022/07/02 05:57:42;;;;;;;;;;;;;;;24.32;67.56;100941.78;7401846;19;1850;-63
2022/07/02 06:00:14;;;;;;;;;;;;;;;24.36;67.36;100932.31;7403066;19;1546;-63
2022/07/02 06:02:43;;;;;;;;;;;;;;;24.39;67.41;100963.56;7401005;19;1367;-62
2022/07/02 06:07:53;;;;;;;;;;;;;;;24.36;67.35;100953.94;7398913;19;1428;-63
2022/07/02 06:10:21;;;;;;;;;;;;;;;24.37;67.78;100952.94;7403679;19;1409;-63
2022/07/02 06:12:51;;;;;;;;;;;;;;;24.38;67.36;100953.78;7405575;19;1614;-62
2022/07/02 06:15:23;;;;;;;;;;;;;;;24.35;67.56;100946.00;7403989;19;1347;-63
2022/07/02 06:17:51;;;;;;;;;;;;;;;24.36;67.53;100947.72;7404183;19;1842;-63
2022/07/02 06:20:20;;;;;;;;;;;;;;;24.37;67.74;100954.78;7404217;19;1894;-63
2022/07/02 06:22:48;;;;;;;;;;;;;;;24.38;67.53;100945.69;7404124;19;1586;-62
2022/07/02 06:25:17;;;;;;;;;;;;;;;24.43;67.55;100954.13;7402682;19;1614;-63
2022/07/02 06:27:45;;;;;;;;;;;;;;;24.45;67.56;100952.09;7404691;19;1496;-63
2022/07/02 06:30:16;;;;;;;;;;;;;;;24.39;67.29;100953.63;7404092;19;1515;-63
2022/07/02 06:32:48;;;;;;;;;;;;;;;24.42;67.30;100957.84;7404383;19;1378;-63
2022/07/02 06:35:17;;;;;;;;;;;;;;;24.42;67.55;100955.16;7404500;19;1594;-63
2022/07/02 06:37:45;;;;;;;;;;;;;;;24.44;67.19;100950.41;7404377;19;1847;-63
2022/07/02 06:40:14;;;;;;;;;;;;;;;24.48;67.18;100957.19;7404411;19;1425;-65
2022/07/02 06:42:42;;;;;;;;;;;;;;;24.57;67.03;100948.09;7403982;19;1352;-62
2022/07/02 06:45:11;;;;;;;;;;;;;;;24.55;67.68;100958.25;7404822;19;1613;-65
2022/07/02 06:47:41;;;;;;;;;;;;;;;24.56;66.75;100965.31;7402761;19;1634;-56
2022/07/02 06:50:13;;;;;;;;;;;;;;;24.55;67.33;100951.97;7402930;19;1308;-56
2022/07/02 06:52:44;;;;;;;;;;;;;;;24.55;68.25;100963.66;7402246;19;1535;-57
2022/07/02 06:55:13;;;;;;;;;;;;;;;24.60;67.61;100977.50;7403864;19;1297;-62
2022/07/02 06:57:41;;;;;;;;;;;;;;;24.56;68.07;100976.16;7403898;19;1849;-63
2022/07/02 07:00:10;;;;;;;;;;;;;;;24.58;68.00;100967.88;7402304;19;1532;-62
2022/07/02 07:02:38;;;;;;;;;;;;;;;24.55;68.61;100962.78;7402480;19;1527;-63
2022/07/02 07:05:07;;;;;;;;;;;;;;;24.53;68.22;100957.56;7403910;19;1524;-63
2022/07/02 07:07:38;;;;;;;;;;;;;;;24.52;68.67;100977.50;7403227;19;1590;-63
2022/07/02 07:10:07;;;;;;;;;;;;;;;24.51;68.62;100956.91;7402268;19;1203;-63
2022/07/02 07:12:36;;;;;;;;;;;;;;;24.48;68.15;100961.75;7399868;19;1287;-62
2022/07/02 07:15:06;;;;;;;;;;;;;;;24.50;68.32;100975.94;7406487;19;1551;-62
2022/07/02 07:17:35;;;;;;;;;;;;;;;24.45;68.42;100965.59;7409769;19;1824;-62
2022/07/02 07:20:03;;;;;;;;;;;;;;;24.43;68.45;100975.75;7409932;19;1458;-62
2022/07/02 07:22:31;;;;;;;;;;;;;;;24.46;68.30;100986.25;7409363;19;1433;-62
2022/07/02 07:25:02;;;;;;;;;;;;;;;24.45;68.15;100981.81;7408476;19;1643;-62
2022/07/02 07:27:30;;;;;;;;;;;;;;;24.47;68.21;100993.34;7410432;19;1470;-62
2022/07/02 07:29:59;;;;;;;;;;;;;;;24.44;67.89;100990.97;7409887;19;1515;-62
2022/07/02 07:32:27;;;;;;;;;;;;;;;24.45;67.79;100984.53;7410778;19;1594;-62
2022/07/02 07:34:55;;;;;;;;;;;;;;;24.44;67.98;100993.66;7410372;19;1465;-63
2022/07/02 07:37:24;;;;;;;;;;;;;;;24.46;67.93;100996.22;7408961;19;1850;-62
2022/07/02 07:39:52;;;;;;;;;;;;;;;24.42;67.97;100982.19;7409229;19;1714;-62
2022/07/02 07:42:23;;;;;;;;;;;;;;;24.53;67.66;100998.13;7410670;19;1600;-62
2022/07/02 07:44:51;;;;;;;;;;;;;;;24.50;67.83;100993.03;7409526;19;1870;-62
2022/07/02 07:47:19;;;;;;;;;;;;;;;23.80;68.60;100996.84;7409616;19;1564;-62
2022/07/02 07:49:48;;;;;;;;;;;;;;;23.08;68.39;100992.63;7408136;19;1783;-62
2022/07/02 07:52:16;;;;;;;;;;;;;;;22.45;68.51;100994.44;7409711;19;1681;-62
2022/07/02 07:54:44;;;;;;;;;;;;;;;22.24;67.56;100992.88;7407842;19;1493;-62
2022/07/02 07:57:13;;;;;;;;;;;;;;;22.14;66.45;100996.56;7409229;19;1893;-62
2022/07/02 07:59:44;;;;;;;;;;;;;;;21.93;65.90;101000.38;7409178;19;1552;-62
2022/07/02 08:02:12;;;;;;;;;;;;;;;21.86;64.90;100999.25;7408221;19;1799;-62
2022/07/02 08:04:40;;;;;;;;;;;;;;;21.69;64.29;100998.22;7408061;19;1646;-61
2022/07/02 08:07:08;;;;;;;;;;;;;;;21.61;63.75;101001.63;7407870;19;1446;-61
2022/07/02 08:09:37;;;;;;;;;;;;;;;21.65;63.06;101008.41;7407591;19;1473;-63
2022/07/02 08:12:05;;;;;;;;;;;;;;;21.48;62.53;100995.72;7406401;19;1342;-62
2022/07/02 08:14:34;;;;;;;;;;;;;;;21.45;62.01;101018.41;7404825;19;1693;-57
2022/07/02 08:17:05;;;;;;;;;;;;;;;21.39;61.71;101007.34;7407330;19;1297;-56
2022/07/02 08:19:33;;;;;;;;;;;;;;;21.33;61.57;101019.53;7405473;19;1860;-56
2022/07/02 08:22:02;;;;;;;;;;;;;;;21.19;61.09;101011.91;7407145;19;1300;-55
2022/07/02 08:24:30;;;;;;;;;;;;;;;21.27;60.37;101009.34;7408687;19;1354;-60
2022/07/02 08:26:58;;;;;;;;;;;;;;;21.21;60.04;101021.53;7407100;19;1478;-62
2022/07/02 08:29:27;;;;;;;;;;;;;;;21.10;60.14;101018.16;7408294;19;1766;-61
2022/07/02 08:31:55;;;;;;;;;;;;;;;21.11;59.43;101019.81;7402960;19;1223;-60
2022/07/02 08:34:26;;;;;;;;;;;;;;;21.06;59.86;101018.41;7406612;19;1253;-56
2022/07/02 08:36:54;;;;;;;;;;;;;;;20.95;59.08;101021.28;7407991;19;1446;-56
2022/07/02 08:39:23;;;;;;;;;;;;;;;20.80;59.12;101036.13;7407878;19;1894;-57
2022/07/02 08:41:52;;;;;;;;;;;;;;;20.81;59.18;101024.38;7407318;19;1778;-56
2022/07/02 08:44:22;;;;;;;;;;;;;;;20.76;58.71;101029.34;7403902;19;1482;-55
2022/07/02 08:46:52;;;;;;;;;;;;;;;20.60;58.68;101024.50;7406010;19;1459;-59
2022/07/02 08:49:21;;;;;;;;;;;;;;;20.64;58.51;101034.84;7405605;19;1402;-58
2022/07/02 08:51:56;;;;;;;;;;;;;;;20.77;58.71;101025.63;7404692;19;1376;-60
2022/07/02 08:54:25;;;;;;;;;;;;;;;20.84;58.30;101021.41;7405008;19;1739;-59
2022/07/02 08:56:54;;;;;;;;;;;;;;;20.81;58.61;101027.94;7407083;19;1321;-58
2022/07/02 08:59:22;;;;;;;;;;;;;;;20.82;58.37;101026.91;7405957;19;1858;-60
2022/07/02 09:01:52;;;;;;;;;;;;;;;20.94;58.48;101029.47;7404732;19;1710;-64
2022/07/02 09:04:21;;;;;;;;;;;;;;;20.96;58.40;101031.03;7402991;19;1715;-60
2022/07/02 09:06:57;;;;;;;;;;;;;;;20.90;58.18;101018.16;7397748;19;1610;-61
2022/07/02 09:09:26;;;;;;;;;;;;;;;21.17;58.07;101030.00;7401801;19;1481;-61
2022/07/02 09:11:55;;;;;;;;;;;;;;;21.00;57.57;101013.63;7406993;19;1544;-62
2022/07/02 09:14:23;;;;;;;;;;;;;;;20.85;57.58;101021.28;7406547;19;1489;-61
2022/07/02 09:16:52;;;;;;;;;;;;;;;20.86;57.93;101030.19;7406120;19;1485;-61
2022/07/02 09:19:21;;;;;;;;;;;;;;;20.74;57.69;101023.25;7404620;19;1861;-62
2022/07/02 09:21:53;;;;;;;;;;;;;;;20.74;57.71;101044.75;7405699;19;1619;-61
2022/07/02 09:24:29;;;;;;;;;;;;;;;20.88;57.25;101019.28;7407360;19;1619;-61
2022/07/02 09:27:02;;;;;;;;;;;;;;;20.90;57.21;101023.53;7407744;19;1544;-58
2022/07/02 09:29:30;;;;;;;;;;;;;;;20.83;57.33;101017.00;7406757;19;1689;-62
2022/07/02 09:31:59;;;;;;;;;;;;;;;20.85;57.57;101015.06;7406187;19;1659;-60
2022/07/02 09:34:27;;;;;;;;;;;;;;;21.00;57.70;101026.22;7405397;19;1769;-63
2022/07/02 09:36:58;;;;;;;;;;;;;;;20.93;57.05;101015.19;7404215;19;1285;-64
2022/07/02 09:39:31;;;;;;;;;;;;;;;20.84;57.55;101024.09;7397510;19;1859;-55
2022/07/02 09:41:59;;;;;;;;;;;;;;;20.80;57.97;101009.25;7401521;19;1352;-56
2022/07/02 09:44:28;;;;;;;;;;;;;;;20.64;57.64;101012.50;7399450;19;1741;-56
2022/07/02 09:46:57;;;;;;;;;;;;;;;20.46;57.67;101031.94;7397486;19;1689;-56
2022/07/02 09:49:25;;;;;;;;;;;;;;;20.35;58.05;101013.28;7401132;19;1756;-56
2022/07/02 09:51:54;;;;;;;;;;;;;;;20.35;57.65;101020.47;7400520;19;1597;-57
2022/07/02 09:54:25;;;;;;;;;;;;;;;20.35;57.41;101012.41;7400902;19;1617;-57
2022/07/02 09:56:55;;;;;;;;;;;;;;;20.27;57.36;101013.97;7401756;19;1047;-56
2022/07/02 09:59:23;;;;;;;;;;;;;;;20.31;57.32;101021.72;7399819;19;1857;-56
2022/07/02 10:01:52;;;;;;;;;;;;;;;20.22;57.23;101018.91;7403105;19;1678;-56
2022/07/02 10:04:29;;;;;;;;;;;;;;;20.18;56.87;101009.41;7404080;19;1721;-56
2022/07/02 10:06:59;;;;;;;;;;;;;;;20.16;57.09;101011.38;7399969;19;1545;-56
2022/07/02 10:09:30;;;;;;;;;;;;;;;20.21;56.81;101021.72;7403421;19;1340;-60
2022/07/02 10:11:59;;;;;;;;;;;;;;;20.09;56.85;101010.22;7405096;19;1414;-60
2022/07/02 10:14:28;;;;;;;;;;;;;;;20.06;56.95;101022.09;7404673;19;1623;-60
2022/07/02 10:16:58;;;;;;;;;;;;;;;20.10;56.55;101020.00;7404912;19;1910;-59
2022/07/02 10:19:27;;;;;;;;;;;;;;;20.03;56.77;101017.00;7403655;19;1859;-60
2022/07/02 10:21:56;;;;;;;;;;;;;;;19.98;56.50;101004.97;7404422;19;1626;-61
2022/07/02 10:24:26;;;;;;;;;;;;;;;19.99;56.35;101017.41;7404808;19;1337;-59
2022/07/02 10:26:58;;;;;;;;;;;;;;;19.96;56.37;101013.16;7405845;19;1912;-60
2022/07/02 10:29:27;;;;;;;;;;;;;;;19.99;56.58;101012.03;7404385;19;1812;-60
2022/07/02 10:32:00;;;;;;;;;;;;;;;19.91;56.20;101006.50;7402271;19;1758;-59
2022/07/02 10:34:39;;;;;;;;;;;;;;;19.90;56.08;101002.97;7401661;19;1578;-59
2022/07/02 10:37:08;;;;;;;;;;;;;;;20.08;56.20;101002.34;7401638;19;1274;-61
2022/07/02 10:39:44;;;;;;;;;;;;;;;19.77;56.66;101002.34;7400929;19;1852;-60
2022/07/02 10:42:15;;;;;;;;;;;;;;;19.74;57.27;100983.84;7401430;19;1760;-60
2022/07/02 10:44:45;;;;;;;;;;;;;;;19.93;57.67;100985.75;7395257;19;1407;-66
2022/07/02 10:47:20;;;;;;;;;;;;;;;20.24;57.52;100990.06;7409964;19;1120;-63
2022/07/02 10:49:58;;;;;;;;;;;;;;;20.13;57.47;100998.22;7402451;19;1711;-69
2022/07/02 10:52:39;;;;;;;;;;;;;;;20.18;57.84;101001.34;7406916;19;1290;-65
2022/07/02 10:55:08;;;;;;;;;;;;;;;20.13;57.87;100998.22;7401753;19;1448;-65
2022/07/02 10:57:39;;;;;;;;;;;;;;;20.11;58.25;100994.81;7407108;19;1362;-65
2022/07/02 11:00:14;;;;;;;;;;;;;;;20.09;58.10;101004.84;7404023;19;1860;-64
2022/07/02 11:02:42;;;;;;;;;;;;;;;20.49;57.16;100992.34;7404759;19;1305;-64
2022/07/02 11:05:12;;;;;;;;;;;;;;;20.59;57.38;100990.56;7405976;19;1553;-65
2022/07/02 11:07:49;;;;;;;;;;;;;;;20.29;57.98;100999.53;7403384;19;1506;-65
2022/07/02 11:10:17;;;;;;;;;;;;;;;20.16;58.40;100995.28;7404608;19;1373;-65
2022/07/02 11:12:55;;;;;;;;;;;;;;;20.32;58.23;100997.44;7405480;19;1348;-68
2022/07/02 11:15:32;;;;;;;;;;;;;;;20.72;57.32;100983.06;7410132;19;1273;-70
2022/07/02 11:18:04;;;;;;;;;;;;;;;20.69;58.78;100971.75;7429371;19;1391;-72
2022/07/02 11:20:32;;;;;;;;;;;;;;;20.75;59.84;100987.31;7417476;19;1816;-68
2022/07/02 11:23:01;;;;;;;;;;;;;;;20.81;61.24;100992.13;7411443;19;1268;-62
2022/07/02 11:25:31;;;;;;;;;;;;;;;20.85;61.48;100977.44;7406935;19;1250;-70
2022/07/02 11:28:03;;;;;;;;;;;;;;;20.87;62.60;100975.44;7412637;19;1403;-65
2022/07/02 11:30:32;;;;;;;;;;;;;;;20.82;62.39;100980.38;7409516;19;1364;-66
2022/07/02 11:33:01;;;;;;;;;;;;;;;20.73;62.86;100984.78;7406891;19;1288;-62
2022/07/02 11:35:30;;;;;;;;;;;;;;;20.77;62.62;100982.63;7407248;19;1434;-63
2022/07/02 11:37:59;;;;;;;;;;;;;;;20.94;61.99;100978.41;7409441;19;1260;-65
2022/07/02 11:40:28;;;;;;;;;;;;;;;20.93;61.68;100985.63;7403869;19;1862;-65
2022/07/02 11:42:56;;;;;;;;;;;;;;;20.94;61.84;100978.41;7407537;19;1288;-66
2022/07/02 11:45:28;;;;;;;;;;;;;;;21.25;62.59;100989.81;7407507;19;1289;-65
2022/07/02 11:47:56;;;;;;;;;;;;;;;21.37;63.10;100977.06;7408175;19;1252;-63
2022/07/02 11:50:31;;;;;;;;;;;;;;;21.53;62.83;100977.31;7411186;19;1288;-70
2022/07/02 11:53:00;;;;;;;;;;;;;;;21.53;62.98;100954.94;7408355;19;1454;-70
2022/07/02 11:55:28;;;;;;;;;;;;;;;21.58;62.91;100971.47;7407305;19;1320;-69
2022/07/02 11:57:57;;;;;;;;;;;;;;;21.56;63.35;100960.84;7407225;19;1186;-68
2022/07/02 12:00:33;;;;;;;;;;;;;;;21.64;63.08;100957.44;7409013;19;1853;-70
2022/07/02 12:03:09;;;;;;;;;;;;;;;21.60;63.45;100954.19;7407048;19;1289;-65
2022/07/02 12:05:37;;;;;;;;;;;;;;;21.65;63.46;100953.75;7408155;19;1316;-68
2022/07/02 12:08:07;;;;;;;;;;;;;;;21.67;63.64;100957.16;7409894;19;1066;-67
2022/07/02 12:10:40;;;;;;;;;;;;;;;21.66;63.77;100947.34;7405334;19;1229;-67
2022/07/02 12:13:09;;;;;;;;;;;;;;;21.72;63.41;100954.00;7408071;19;1211;-71
2022/07/02 12:15:46;;;;;;;;;;;;;;;21.73;63.83;100950.31;7407729;19;1438;-70
2022/07/02 12:18:19;;;;;;;;;;;;;;;21.74;63.75;100947.47;7404338;19;1229;-68
2022/07/02 12:20:48;;;;;;;;;;;;;;;21.80;63.66;100963.00;7406001;19;1856;-67
2022/07/02 12:23:17;;;;;;;;;;;;;;;21.82;63.76;100928.72;7406670;19;1215;-67
2022/07/02 12:25:45;;;;;;;;;;;;;;;21.79;63.92;100936.25;7405299;19;1351;-66
2022/07/02 12:30:58;;;;;;;;;;;;;;;21.83;63.87;100943.88;7405348;19;1206;-65
2022/07/02 12:33:33;;;;;;;;;;;;;;;21.87;63.99;100947.13;7403416;19;1582;-64
2022/07/02 12:36:02;;;;;;;;;;;;;;;21.91;63.83;100947.69;7408086;19;1442;-65
2022/07/02 12:38:31;;;;;;;;;;;;;;;22.01;65.39;100959.22;7409136;19;1469;-64
2022/07/02 12:41:00;;;;;;;;;;;;;;;22.16;67.33;100946.97;7405798;19;1838;-64
2022/07/02 12:43:28;;;;;;;;;;;;;;;22.51;65.94;100929.13;7405886;19;1264;-66
2022/07/02 12:46:08;;;;;;;;;;;;;;;22.92;65.13;100929.47;7405549;19;1277;-65
2022/07/02 12:48:44;;;;;;;;;;;;;;;23.29;64.33;100917.59;7407037;19;1329;-66
2022/07/02 12:51:14;;;;;;;;;;;;;;;23.40;63.67;100938.91;7405361;19;1357;-66
2022/07/02 12:53:43;;;;;;;;;;;;;;;23.52;62.82;100944.03;7406345;19;1243;-66
2022/07/02 12:56:12;;;;;;;;;;;;;;;23.56;63.09;100929.22;7404043;19;1311;-65
2022/07/02 12:58:40;;;;;;;;;;;;;;;23.57;62.48;100936.28;7407587;19;1256;-66
2022/07/02 13:01:11;;;;;;;;;;;;;;;23.56;62.68;100940.00;7402189;19;1840;-66
2022/07/02 13:03:40;;;;;;;;;;;;;;;23.62;62.66;100924.00;7404850;19;1193;-65
2022/07/02 13:06:08;;;;;;;;;;;;;;;23.59;63.13;100928.88;7404562;19;1336;-66
2022/07/02 13:08:37;;;;;;;;;;;;;;;23.63;63.36;100935.63;7405788;19;1167;-63